createdAt,value
2022-11-24T00:00:30.616Z,1.62
2022-11-24T00:03:05.233Z,1.68
2022-11-24T00:05:39.401Z,1.73
2022-11-24T00:08:15.118Z,1.78
2022-11-24T00:10:47.860Z,1.83
2022-11-24T00:13:21.312Z,1.84
2022-11-24T00:15:54.509Z,1.89
2022-11-24T00:18:27.783Z,1.92
2022-11-24T00:21:00.770Z,1.96
2022-11-24T00:23:34.705Z,2.02
2022-11-24T00:26:20.388Z,2.07
2022-11-24T00:28:56.373Z,2.13
2022-11-24T00:31:35.472Z,2.18
2022-11-24T00:34:16.366Z,2.20
2022-11-24T00:36:49.159Z,2.23
2022-11-24T00:39:22.412Z,2.25
2022-11-24T00:41:55.367Z,2.30
2022-11-24T00:44:28.327Z,2.31
2022-11-24T00:47:01.267Z,2.30
2022-11-24T00:49:34.319Z,2.31
2022-11-24T00:52:07.797Z,2.32
2022-11-24T00:54:40.916Z,2.33
2022-11-24T00:57:13.925Z,2.33
2022-11-24T00:59:46.824Z,2.33
2022-11-24T01:02:19.994Z,2.33
2022-11-24T01:04:53.025Z,2.37
2022-11-24T01:07:26.457Z,2.41
2022-11-24T01:09:59.275Z,2.42
2022-11-24T01:12:32.611Z,2.45
2022-11-24T01:15:06.410Z,2.47
2022-11-24T01:17:39.577Z,2.50
2022-11-24T01:20:13.583Z,2.53
2022-11-24T01:22:50.294Z,2.51
2022-11-24T01:25:23.371Z,2.53
2022-11-24T01:27:56.594Z,2.54
2022-11-24T01:30:30.502Z,2.55
2022-11-24T01:33:04.042Z,2.58
2022-11-24T01:35:37.790Z,2.60
2022-11-24T01:38:11.032Z,2.60
2022-11-24T01:40:44.892Z,2.60
2022-11-24T01:43:23.009Z,2.60
2022-11-24T01:45:56.662Z,2.60
2022-11-24T01:48:34.158Z,2.62
2022-11-24T01:51:16.388Z,2.63
2022-11-24T01:53:53.519Z,2.67
2022-11-24T01:56:26.828Z,2.69
2022-11-24T01:59:02.206Z,2.69
2022-11-24T02:01:35.188Z,2.71
2022-11-24T02:04:12.294Z,2.74
2022-11-24T02:06:46.575Z,2.73
2022-11-24T02:09:27.839Z,2.73
2022-11-24T02:12:02.232Z,2.71
2022-11-24T02:14:37.162Z,2.69
2022-11-24T02:17:10.379Z,2.67
2022-11-24T02:19:48.492Z,2.65
2022-11-24T02:22:38.042Z,2.63
2022-11-24T02:25:18.829Z,2.60
2022-11-24T02:27:54.131Z,2.59
2022-11-24T02:30:27.830Z,2.58
2022-11-24T02:33:01.736Z,2.56
2022-11-24T02:35:35.890Z,2.57
2022-11-24T02:38:10.420Z,2.58
2022-11-24T02:40:47.115Z,2.58
2022-11-24T02:43:23.905Z,2.58
2022-11-24T02:45:56.805Z,2.58
2022-11-24T02:48:30.006Z,2.59
2022-11-24T02:51:02.928Z,2.60
2022-11-24T02:53:36.375Z,2.59
2022-11-24T02:56:09.913Z,2.59
2022-11-24T02:58:43.146Z,2.57
2022-11-24T03:01:16.624Z,2.53
2022-11-24T03:03:49.632Z,2.51
2022-11-24T03:06:22.538Z,2.50
2022-11-24T03:08:55.652Z,2.47
2022-11-24T03:11:28.670Z,2.46
2022-11-24T03:14:01.766Z,2.45
2022-11-24T03:16:36.023Z,2.48
2022-11-24T03:19:09.164Z,2.52
2022-11-24T03:21:42.046Z,2.53
2022-11-24T03:24:15.651Z,2.52
2022-11-24T03:26:48.534Z,2.54
2022-11-24T03:29:21.641Z,2.56
2022-11-24T03:31:55.465Z,2.56
2022-11-24T03:34:28.675Z,2.58
2022-11-24T03:37:01.715Z,2.59
2022-11-24T03:39:35.272Z,2.60
2022-11-24T03:42:08.558Z,2.60
2022-11-24T03:44:41.468Z,2.59
2022-11-24T03:47:15.005Z,2.60
2022-11-24T03:49:47.934Z,2.61
2022-11-24T03:52:20.851Z,2.63
2022-11-24T03:54:54.890Z,2.63
2022-11-24T03:57:28.125Z,2.63
2022-11-24T04:00:01.231Z,2.62
2022-11-24T04:02:36.661Z,2.64
2022-11-24T04:05:10.561Z,2.64
2022-11-24T04:07:43.520Z,2.64
2022-11-24T04:10:17.267Z,2.61
2022-11-24T04:12:50.446Z,2.58
2022-11-24T04:15:24.547Z,2.55
2022-11-24T04:17:58.782Z,2.53
2022-11-24T04:20:31.781Z,2.55
2022-11-24T04:23:04.849Z,2.57
2022-11-24T04:25:38.812Z,2.58
2022-11-24T04:28:13.695Z,2.57
2022-11-24T04:30:46.894Z,2.56
2022-11-24T04:33:20.180Z,2.57
2022-11-24T04:35:55.390Z,2.56
2022-11-24T04:39:19.537Z,2.57
2022-11-24T04:41:04.980Z,2.57
2022-11-24T04:43:40.788Z,2.57
2022-11-24T04:46:14.536Z,2.58
2022-11-24T04:48:49.286Z,2.61
2022-11-24T04:51:22.287Z,2.62
2022-11-24T04:53:55.397Z,2.63
2022-11-24T04:56:28.408Z,2.65
2022-11-24T04:59:07.874Z,2.64
2022-11-24T05:01:37.604Z,2.63
2022-11-24T05:04:13.610Z,2.63
2022-11-24T05:06:46.616Z,2.64
2022-11-24T05:09:19.911Z,2.64
2022-11-24T05:11:53.058Z,2.64
2022-11-24T05:14:27.343Z,2.64
2022-11-24T05:17:00.718Z,2.67
2022-11-24T05:19:34.204Z,2.67
2022-11-24T05:22:07.303Z,2.68
2022-11-24T05:24:40.500Z,2.70
2022-11-24T05:27:13.901Z,2.70
2022-11-24T05:29:46.780Z,2.76
2022-11-24T05:32:19.955Z,2.78
2022-11-24T05:34:54.214Z,2.81
2022-11-24T05:37:28.953Z,2.84
2022-11-24T05:40:01.777Z,2.87
2022-11-24T05:42:47.260Z,2.92
2022-11-24T05:45:22.435Z,2.97
2022-11-24T05:47:55.629Z,3.03
2022-11-24T05:50:28.709Z,3.11
2022-11-24T05:53:11.564Z,3.17
2022-11-24T05:55:45.103Z,3.24
2022-11-24T05:58:18.576Z,3.31
2022-11-24T06:00:51.338Z,3.37
2022-11-24T06:03:24.928Z,3.43
2022-11-24T06:05:57.823Z,3.50
2022-11-24T06:08:31.323Z,3.56
2022-11-24T06:11:06.739Z,3.63
2022-11-24T06:13:39.416Z,3.71
2022-11-24T06:16:13.193Z,3.76
2022-11-24T06:18:45.999Z,3.81
2022-11-24T06:21:18.975Z,3.85
2022-11-24T06:23:51.831Z,3.91
2022-11-24T06:26:25.778Z,3.98
2022-11-24T06:28:58.714Z,4.05
2022-11-24T06:31:33.009Z,4.11
2022-11-24T06:34:08.551Z,4.16
2022-11-24T06:36:42.111Z,4.23
2022-11-24T06:39:14.922Z,4.29
2022-11-24T06:41:54.032Z,4.38
2022-11-24T06:44:27.635Z,4.44
2022-11-24T06:47:01.134Z,4.48
2022-11-24T06:49:34.070Z,4.55
2022-11-24T06:52:07.515Z,4.61
2022-11-24T06:54:40.216Z,4.69
2022-11-24T06:57:13.036Z,4.77
2022-11-24T06:59:46.086Z,4.86
2022-11-24T07:02:18.898Z,4.95
2022-11-24T07:04:52.100Z,5.03
2022-11-24T07:07:25.087Z,5.10
2022-11-24T07:09:58.095Z,5.19
2022-11-24T07:12:49.458Z,5.28
2022-11-24T07:15:39.462Z,5.36
2022-11-24T07:18:12.590Z,5.48
2022-11-24T07:20:45.423Z,5.60
2022-11-24T07:23:18.508Z,5.71
2022-11-24T07:25:51.695Z,5.84
2022-11-24T07:28:25.052Z,5.92
2022-11-24T07:30:58.058Z,6.01
2022-11-24T07:33:31.999Z,6.07
2022-11-24T07:36:07.399Z,6.14
2022-11-24T07:38:40.395Z,6.21
2022-11-24T07:41:16.612Z,6.26
2022-11-24T07:43:50.819Z,6.28
2022-11-24T07:46:23.903Z,6.35
2022-11-24T07:48:56.895Z,6.41
2022-11-24T07:51:30.147Z,6.46
2022-11-24T07:54:03.440Z,6.51
2022-11-24T07:56:36.879Z,6.58
2022-11-24T07:59:09.740Z,6.65
2022-11-24T08:01:42.718Z,6.75
2022-11-24T08:04:15.460Z,6.86
2022-11-24T08:06:48.476Z,6.99
2022-11-24T08:09:21.120Z,7.15
2022-11-24T08:11:53.992Z,7.31
2022-11-24T08:14:26.637Z,7.46
2022-11-24T08:17:00.390Z,7.60
2022-11-24T08:19:33.289Z,7.73
2022-11-24T08:22:06.019Z,7.86
2022-11-24T08:24:39.185Z,7.95
2022-11-24T08:27:11.978Z,8.03
2022-11-24T08:29:45.320Z,8.09
2022-11-24T08:32:22.181Z,8.13
2022-11-24T08:34:59.507Z,8.18
2022-11-24T08:37:27.891Z,8.20
2022-11-24T08:40:00.884Z,8.22
2022-11-24T08:42:34.251Z,8.21
2022-11-24T08:45:19.890Z,8.21
2022-11-24T08:47:42.131Z,8.22
2022-11-24T08:50:15.186Z,8.25
2022-11-24T08:52:47.923Z,8.26
2022-11-24T08:55:22.473Z,8.30
2022-11-24T08:57:55.837Z,8.34
2022-11-24T09:00:28.498Z,8.42
2022-11-24T09:03:01.421Z,8.49
2022-11-24T09:05:52.172Z,8.55
2022-11-24T09:08:09.552Z,8.61
2022-11-24T09:10:43.455Z,8.68
2022-11-24T09:13:16.855Z,8.73
2022-11-24T09:15:50.066Z,8.78
2022-11-24T09:18:28.878Z,8.82
2022-11-24T09:21:10.262Z,8.84
2022-11-24T09:23:42.832Z,8.87
2022-11-24T09:26:30.496Z,8.91
2022-11-24T09:29:05.922Z,8.95
2022-11-24T09:31:40.071Z,9.02
2022-11-24T09:34:17.634Z,9.11
2022-11-24T09:36:51.956Z,9.18
2022-11-24T09:39:24.715Z,9.22
2022-11-24T09:42:11.422Z,9.27
2022-11-24T09:44:54.718Z,9.32
2022-11-24T09:47:47.112Z,9.38
2022-11-24T09:50:27.276Z,9.43
2022-11-24T09:53:13.689Z,9.45
2022-11-24T09:55:58.325Z,9.48
2022-11-24T09:58:55.742Z,9.49
2022-11-24T10:01:37.828Z,9.53
2022-11-24T10:04:33.170Z,9.55
2022-11-24T10:07:29.139Z,9.55
2022-11-24T10:10:24.824Z,9.56
2022-11-24T10:13:21.406Z,9.54
2022-11-24T10:16:17.798Z,9.54
2022-11-24T10:19:01.604Z,9.55
2022-11-24T10:21:56.942Z,9.56
2022-11-24T10:24:58.548Z,9.57
2022-11-24T10:27:45.107Z,9.59
2022-11-24T10:30:22.726Z,9.62
2022-11-24T10:33:16.170Z,9.63
2022-11-24T10:35:53.718Z,9.66
2022-11-24T10:38:40.018Z,9.69
2022-11-24T10:41:23.745Z,9.72
2022-11-24T10:43:59.229Z,9.75
2022-11-24T10:46:39.070Z,9.77
2022-11-24T10:49:07.863Z,9.78
2022-11-24T10:52:01.697Z,9.78
2022-11-24T10:54:36.396Z,9.79
2022-11-24T10:57:09.632Z,9.80
2022-11-24T10:59:42.323Z,9.78
2022-11-24T11:02:37.711Z,9.79
2022-11-24T11:05:37.535Z,9.80
2022-11-24T11:08:30.794Z,9.80
2022-11-24T11:11:16.987Z,9.81
2022-11-24T11:14:03.984Z,9.80
2022-11-24T11:16:49.538Z,9.78
2022-11-24T11:19:49.484Z,9.75
2022-11-24T11:22:31.852Z,9.73
2022-11-24T11:25:17.997Z,9.72
2022-11-24T11:27:51.382Z,9.71
2022-11-24T11:35:39.116Z,9.70
2022-11-24T11:38:13.693Z,9.70
2022-11-24T11:40:46.637Z,9.69
2022-11-24T11:43:35.316Z,9.67
2022-11-24T11:46:16.319Z,9.67
2022-11-24T11:48:50.006Z,9.66
2022-11-24T11:51:55.690Z,9.66
2022-11-24T11:54:51.250Z,9.67
2022-11-24T11:57:40.734Z,9.69
2022-11-24T12:00:19.539Z,9.66
2022-11-24T12:03:15.193Z,9.63
2022-11-24T12:06:15.649Z,9.61
2022-11-24T12:09:30.829Z,9.57
2022-11-24T12:12:09.660Z,9.55
2022-11-24T12:15:19.846Z,9.57
2022-11-24T12:18:00.330Z,9.57
2022-11-24T12:20:49.495Z,9.58
2022-11-24T12:23:46.424Z,9.56
2022-11-24T12:26:49.376Z,9.52
2022-11-24T12:30:01.358Z,9.48
2022-11-24T12:33:05.932Z,9.46
2022-11-24T12:35:46.113Z,9.43
2022-11-24T12:38:57.024Z,9.38
2022-11-24T12:41:43.128Z,9.31
2022-11-24T12:44:58.510Z,9.27
2022-11-24T12:48:10.066Z,9.22
2022-11-24T12:50:45.752Z,9.16
2022-11-24T12:53:23.374Z,9.11
2022-11-24T12:56:00.214Z,9.06
2022-11-24T12:58:55.616Z,9.02
2022-11-24T13:01:33.729Z,9.01
2022-11-24T13:04:27.493Z,8.98
2022-11-24T13:07:06.685Z,8.95
2022-11-24T13:09:40.432Z,8.90
2022-11-24T13:12:15.608Z,8.86
2022-11-24T13:14:49.841Z,8.82
2022-11-24T13:17:38.357Z,8.78
2022-11-24T13:20:27.302Z,8.76
2022-11-24T13:23:06.225Z,8.72
2022-11-24T13:25:40.576Z,8.68
2022-11-24T13:28:28.386Z,8.62
2022-11-24T13:30:58.819Z,8.56
2022-11-24T13:33:34.348Z,8.51
2022-11-24T13:36:14.317Z,8.47
2022-11-24T13:38:51.763Z,8.43
2022-11-24T13:41:44.413Z,8.40
2022-11-24T13:44:25.588Z,8.36
2022-11-24T13:47:07.009Z,8.30
2022-11-24T13:49:43.163Z,8.26
2022-11-24T13:52:44.082Z,8.22
2022-11-24T13:55:21.740Z,8.19
2022-11-24T13:58:01.426Z,8.15
2022-11-24T14:00:58.428Z,8.11
2022-11-24T14:04:07.124Z,8.07
2022-11-24T14:06:39.418Z,8.01
2022-11-24T14:09:38.726Z,7.96
2022-11-24T14:12:24.171Z,7.92
2022-11-24T14:15:01.965Z,7.87
2022-11-24T14:17:35.083Z,7.82
2022-11-24T14:20:12.655Z,7.78
2022-11-24T14:22:46.175Z,7.74
2022-11-24T14:25:31.488Z,7.71
2022-11-24T14:28:04.473Z,7.69
2022-11-24T14:30:37.324Z,7.69
2022-11-24T14:33:15.637Z,7.67
2022-11-24T14:35:51.367Z,7.64
2022-11-24T14:38:24.400Z,7.61
2022-11-24T14:40:58.183Z,7.59
2022-11-24T14:43:34.929Z,7.58
2022-11-24T14:46:10.815Z,7.56
2022-11-24T14:48:54.537Z,7.58
2022-11-24T14:51:37.042Z,7.56
2022-11-24T14:54:20.162Z,7.54
2022-11-24T14:57:07.398Z,7.52
2022-11-24T14:59:40.263Z,7.50
2022-11-24T15:02:47.251Z,7.49
2022-11-24T15:05:25.229Z,7.46
2022-11-24T15:08:04.379Z,7.45
2022-11-24T15:10:41.028Z,7.42
2022-11-24T15:13:22.259Z,7.42
2022-11-24T15:16:03.100Z,7.39
2022-11-24T15:18:50.910Z,7.39
2022-11-24T15:21:37.880Z,7.39
2022-11-24T15:24:21.416Z,7.38
2022-11-24T15:27:02.030Z,7.37
2022-11-24T15:29:35.115Z,7.34
2022-11-24T15:32:13.706Z,7.32
2022-11-24T15:34:46.914Z,7.32
2022-11-24T15:37:19.609Z,7.30
2022-11-24T15:39:53.217Z,7.30
2022-11-24T15:42:26.127Z,7.28
2022-11-24T15:44:58.826Z,7.26
2022-11-24T15:47:31.731Z,7.23
2022-11-24T15:50:04.540Z,7.20
2022-11-24T15:52:37.501Z,7.17
2022-11-24T15:55:18.763Z,7.13
2022-11-24T15:57:51.783Z,7.12
2022-11-24T16:00:25.643Z,7.07
2022-11-24T16:03:02.012Z,7.02
2022-11-24T16:05:34.170Z,6.98
2022-11-24T16:08:15.977Z,6.93
2022-11-24T16:10:48.944Z,6.90
2022-11-24T16:13:22.315Z,6.87
2022-11-24T16:15:55.098Z,6.85
2022-11-24T16:18:28.181Z,6.82
2022-11-24T16:21:01.147Z,6.77
2022-11-24T16:23:36.486Z,6.73
2022-11-24T16:26:10.679Z,6.69
2022-11-24T16:28:45.513Z,6.67
2022-11-24T16:31:19.354Z,6.65
2022-11-24T16:33:52.144Z,6.62
2022-11-24T16:36:26.334Z,6.62
2022-11-24T16:39:02.545Z,6.59
2022-11-24T16:41:35.472Z,6.56
2022-11-24T16:44:08.193Z,6.54
2022-11-24T16:46:41.036Z,6.51
2022-11-24T16:49:13.904Z,6.49
2022-11-24T16:51:46.646Z,6.47
2022-11-24T16:54:20.850Z,6.45
2022-11-24T16:56:53.918Z,6.43
2022-11-24T16:59:26.804Z,6.39
2022-11-24T17:01:59.689Z,6.36
2022-11-24T17:04:32.588Z,6.33
2022-11-24T17:07:05.768Z,6.31
2022-11-24T17:09:40.745Z,6.31
2022-11-24T17:12:13.129Z,6.31
2022-11-24T17:15:09.341Z,6.28
2022-11-24T17:17:22.113Z,6.26
2022-11-24T17:19:55.130Z,6.25
2022-11-24T17:22:28.961Z,6.23
2022-11-24T17:25:02.494Z,6.22
2022-11-24T17:27:35.832Z,6.23
2022-11-24T17:30:09.922Z,6.23
2022-11-24T17:32:44.102Z,6.23
2022-11-24T17:35:18.000Z,6.13
2022-11-24T17:37:50.788Z,6.10
2022-11-24T17:40:28.802Z,6.06
2022-11-24T17:43:04.521Z,6.05
2022-11-24T17:45:37.812Z,6.04
2022-11-24T17:48:10.647Z,6.05
2022-11-24T17:50:43.659Z,6.18
2022-11-24T17:53:16.422Z,6.21
2022-11-24T17:55:49.251Z,6.22
2022-11-24T17:58:22.883Z,6.22
2022-11-24T18:00:58.516Z,6.23
2022-11-24T18:03:33.364Z,6.24
2022-11-24T18:06:14.852Z,6.24
2022-11-24T18:08:49.346Z,6.22
2022-11-24T18:11:30.594Z,6.21
2022-11-24T18:14:03.220Z,6.18
2022-11-24T18:16:37.201Z,6.18
2022-11-24T18:19:11.334Z,6.17
2022-11-24T18:21:46.793Z,6.16
2022-11-24T18:24:23.906Z,6.15
2022-11-24T18:26:54.119Z,6.14
2022-11-24T18:29:27.004Z,6.12
2022-11-24T18:32:00.670Z,6.13
2022-11-24T18:34:34.145Z,6.13
2022-11-24T18:37:09.042Z,6.12
2022-11-24T18:39:42.614Z,6.10
2022-11-24T18:42:15.395Z,6.10
2022-11-24T18:44:52.674Z,6.07
2022-11-24T18:47:24.704Z,6.07
2022-11-24T18:49:59.169Z,6.07
2022-11-24T18:52:32.082Z,6.07
2022-11-24T18:55:05.404Z,6.05
2022-11-24T18:57:38.267Z,6.01
2022-11-24T19:00:14.654Z,6.00
2022-11-24T19:02:48.232Z,5.96
2022-11-24T19:05:21.178Z,5.92
2022-11-24T19:07:54.245Z,5.92
2022-11-24T19:10:27.371Z,5.89
2022-11-24T19:13:00.272Z,5.90
2022-11-24T19:15:37.088Z,5.88
2022-11-24T19:18:10.194Z,5.88
2022-11-24T19:20:43.066Z,5.88
2022-11-24T19:23:16.737Z,5.86
2022-11-24T19:25:49.840Z,5.70
2022-11-24T19:28:22.883Z,5.65
2022-11-24T19:30:57.451Z,5.64
2022-11-24T19:33:33.162Z,5.62
2022-11-24T19:36:14.896Z,5.59
2022-11-24T19:38:56.920Z,5.57
2022-11-24T19:41:34.547Z,5.57
2022-11-24T19:44:08.324Z,5.57
2022-11-24T19:46:42.103Z,5.56
2022-11-24T19:49:17.347Z,5.53
2022-11-24T19:51:50.264Z,5.52
2022-11-24T19:54:23.074Z,5.47
2022-11-24T19:56:56.915Z,5.45
2022-11-24T19:59:31.536Z,5.43
2022-11-24T20:02:05.171Z,5.42
2022-11-24T20:04:40.864Z,5.42
2022-11-24T20:07:13.885Z,5.41
2022-11-24T20:09:46.971Z,5.39
2022-11-24T20:12:19.824Z,5.38
2022-11-24T20:14:53.890Z,5.34
2022-11-24T20:17:26.673Z,5.34
2022-11-24T20:19:59.964Z,5.33
2022-11-24T20:22:33.572Z,5.32
2022-11-24T20:25:08.376Z,5.31
2022-11-24T20:27:41.365Z,5.32
2022-11-24T20:30:15.758Z,5.30
2022-11-24T20:32:49.253Z,5.29
2022-11-24T20:35:22.223Z,5.27
2022-11-24T20:37:55.204Z,5.26
2022-11-24T20:40:28.793Z,5.28
2022-11-24T20:43:01.867Z,5.28
2022-11-24T20:45:36.474Z,5.28
2022-11-24T20:48:09.697Z,5.28
2022-11-24T20:50:45.779Z,5.28
2022-11-24T20:53:16.050Z,5.30
2022-11-24T20:55:49.634Z,5.31
2022-11-24T20:58:22.698Z,5.31
2022-11-24T21:00:56.714Z,5.37
2022-11-24T21:03:29.704Z,5.47
2022-11-24T21:06:02.728Z,5.47
2022-11-24T21:08:39.408Z,5.44
2022-11-24T21:11:14.085Z,5.43
2022-11-24T21:13:48.992Z,5.42
2022-11-24T21:16:28.928Z,5.30
2022-11-24T21:19:06.337Z,5.39
2022-11-24T21:21:41.367Z,5.41
2022-11-24T21:24:17.894Z,5.41
2022-11-24T21:26:52.317Z,5.40
2022-11-24T21:29:25.932Z,5.37
2022-11-24T21:31:58.809Z,5.37
2022-11-24T21:34:31.665Z,5.37
2022-11-24T21:37:04.482Z,5.37
2022-11-24T21:39:37.211Z,5.35
2022-11-24T21:42:09.963Z,5.36
2022-11-24T21:44:42.575Z,5.35
2022-11-24T21:47:15.459Z,5.35
2022-11-24T21:49:48.789Z,5.34
2022-11-24T21:52:21.976Z,5.33
2022-11-24T21:54:54.878Z,5.32
2022-11-24T21:57:29.037Z,5.30
2022-11-24T22:00:01.160Z,5.31
2022-11-24T22:02:35.685Z,5.30
2022-11-24T22:05:10.057Z,5.30
2022-11-24T22:07:43.800Z,5.30
2022-11-24T22:10:16.498Z,5.32
2022-11-24T22:12:49.428Z,5.34
2022-11-24T22:15:22.082Z,5.37
2022-11-24T22:17:56.864Z,5.38
2022-11-24T22:20:29.850Z,5.40
2022-11-24T22:23:03.323Z,5.40
2022-11-24T22:25:36.658Z,5.40
2022-11-24T22:28:09.585Z,5.41
2022-11-24T22:30:43.208Z,5.44
2022-11-24T22:33:19.137Z,5.44
2022-11-24T22:35:59.965Z,5.45
2022-11-24T22:38:33.761Z,5.45
2022-11-24T22:41:10.126Z,5.44
2022-11-24T22:43:43.871Z,5.47
2022-11-24T22:46:22.704Z,5.49
2022-11-24T22:48:56.555Z,5.49
2022-11-24T22:51:33.152Z,5.49
2022-11-24T22:54:07.122Z,5.50
2022-11-24T22:56:39.831Z,5.50
2022-11-24T22:59:12.527Z,5.49
2022-11-24T23:01:45.776Z,5.48
2022-11-24T23:04:19.326Z,5.49
2022-11-24T23:06:52.467Z,5.49
2022-11-24T23:09:25.979Z,5.49
2022-11-24T23:11:58.750Z,5.48
2022-11-24T23:14:31.588Z,5.47
2022-11-24T23:17:04.443Z,5.47
2022-11-24T23:19:38.902Z,5.46
2022-11-24T23:22:12.038Z,5.47
2022-11-24T23:24:44.803Z,5.45
2022-11-24T23:27:17.990Z,5.43
2022-11-24T23:29:51.183Z,5.39
2022-11-24T23:32:24.376Z,5.36
2022-11-24T23:34:57.333Z,5.33
2022-11-24T23:37:52.188Z,5.32
2022-11-24T23:40:05.070Z,5.32
2022-11-24T23:42:37.956Z,5.31
2022-11-24T23:45:11.605Z,5.30
2022-11-24T23:47:44.323Z,5.27
2022-11-24T23:50:17.984Z,5.24
2022-11-24T23:52:51.090Z,5.22
2022-11-24T23:55:23.979Z,5.19
2022-11-24T23:57:56.813Z,5.17
